createdAt,value
2022-07-27T14:05:06.934Z,742.8
2022-07-27T14:06:07.148Z,0
2022-07-27T14:07:13.049Z,0
2022-07-27T14:08:16.208Z,0
2022-07-27T14:09:18.931Z,0
2022-07-27T14:10:22.087Z,0
2022-07-27T14:13:23.437Z,742.8
2022-07-27T14:14:27.544Z,1009.6
2022-07-27T14:15:31.058Z,1009.6
2022-07-27T14:16:34.042Z,1009.6
2022-07-27T15:58:01.518Z,0
2022-07-27T15:59:13.627Z,742.8
2022-07-27T16:02:25.092Z,742.8
2022-07-27T16:03:30.436Z,1009.8
2022-07-27T16:04:35.733Z,1009.8
2022-07-27T16:05:38.358Z,1009.9
2022-07-27T16:06:41.536Z,1009.8
2022-07-27T16:08:07.187Z,742.8
2022-07-27T16:09:10.932Z,1009.9
2022-07-27T16:10:15.071Z,1009.9
2022-07-27T16:11:17.703Z,1009.9
2022-07-27T16:12:20.279Z,1009.9
2022-07-27T16:13:22.369Z,1010
2022-07-27T16:14:25.284Z,1009.9
2022-07-27T16:15:28.194Z,1009.9
2022-07-27T16:16:31.559Z,1009.9
2022-07-27T16:31:40.506Z,0
2022-07-27T16:34:49.987Z,0
2022-07-27T16:36:12.518Z,742.8
2022-07-27T16:37:16.921Z,1009.9
2022-07-27T16:38:20.106Z,1009.9
2022-07-27T16:39:22.671Z,1010
2022-07-27T16:40:25.310Z,1010
2022-07-27T16:41:28.206Z,1009.9
2022-07-27T16:42:38.028Z,1010
2022-07-27T16:43:41.083Z,1010
2022-07-27T16:44:44.555Z,1009.9
2022-07-27T16:45:47.803Z,1009.9
2022-07-27T16:46:50.964Z,1009.9
2022-07-27T16:47:54.268Z,1009.9
2022-07-27T16:48:56.357Z,1009.9
2022-07-27T16:49:59.410Z,1009.9
2022-07-27T16:51:02.804Z,1009.8
2022-07-27T16:52:05.984Z,1009.8
2022-07-27T16:53:08.892Z,1009.9
2022-07-27T16:54:11.696Z,1009.9
2022-07-27T16:55:14.398Z,1009.9
2022-07-27T16:56:17.528Z,1009.9
2022-07-27T16:57:19.901Z,1009.9
2022-07-27T16:58:22.810Z,1009.9
2022-07-27T16:59:25.372Z,1009.9
2022-07-27T17:00:28.370Z,1009.9
2022-07-27T17:01:31.049Z,1009.9
2022-07-27T17:02:34.410Z,1009.9
2022-07-27T17:03:37.663Z,1009.9
2022-07-27T17:04:40.747Z,1009.9
2022-07-27T17:05:43.799Z,1009.9
2022-07-27T17:06:47.017Z,1009.9
2022-07-27T17:07:49.922Z,1009.9
2022-07-27T17:08:51.939Z,1009.9
2022-07-27T17:09:54.851Z,1009.9
2022-07-27T17:10:58.033Z,1009.9
2022-07-27T17:12:01.108Z,1009.9
2022-07-27T17:13:13.692Z,1009.9
2022-07-27T17:14:17.633Z,1009.9
2022-07-27T17:15:24.304Z,1009.9
2022-07-27T17:16:27.641Z,1009.9
2022-07-27T17:17:31.210Z,1010
2022-07-27T17:18:40.713Z,1010
2022-07-27T17:19:43.250Z,1010
2022-07-27T17:20:45.339Z,1010
2022-07-27T17:21:48.632Z,1010
2022-07-27T17:22:52.981Z,1010
2022-07-27T17:23:58.060Z,1010
2022-07-27T17:25:00.974Z,1010
2022-07-27T17:26:04.307Z,1010
2022-07-27T17:27:07.332Z,1010
2022-07-27T17:28:10.182Z,1009.9
2022-07-27T17:29:14.350Z,1009.9
2022-07-27T17:30:18.932Z,1010
2022-07-27T17:31:21.868Z,1010
2022-07-27T17:32:24.281Z,1010
2022-07-27T17:33:27.753Z,1010
2022-07-27T17:34:30.963Z,1010
2022-07-27T17:35:33.869Z,1010
2022-07-27T17:36:36.235Z,1010
2022-07-27T17:38:06.821Z,1010
2022-07-27T17:39:12.261Z,1010
2022-07-27T17:40:18.100Z,1010.1
2022-07-27T17:41:27.390Z,1010
2022-07-27T17:42:30.296Z,1010
2022-07-27T17:43:33.415Z,1010
2022-07-27T17:44:36.036Z,1010
2022-07-27T17:45:39.211Z,1010
2022-07-27T17:46:41.871Z,1010
2022-07-27T17:47:45.377Z,1010
2022-07-27T17:48:48.159Z,1010
2022-07-27T17:49:51.126Z,1010
2022-07-27T17:50:54.033Z,1010
2022-07-27T17:51:57.710Z,1010
2022-07-27T17:53:00.533Z,1010
2022-07-27T17:54:03.367Z,1010
2022-07-27T17:55:06.195Z,1010
2022-07-27T17:56:09.145Z,1010
2022-07-27T17:57:11.848Z,1010
2022-07-27T17:58:14.751Z,1010
2022-07-27T17:59:47.512Z,1010
2022-07-27T18:00:50.474Z,1010.1
2022-07-27T18:01:53.490Z,1010
2022-07-27T18:02:56.526Z,1010.1
2022-07-27T18:04:00.214Z,1010.1
2022-07-27T18:05:03.175Z,1010.1
2022-07-27T18:06:06.024Z,1010.1
2022-07-27T18:07:08.859Z,1010.1
2022-07-27T18:08:11.963Z,1010.1
2022-07-27T18:09:15.301Z,1010.1
2022-07-27T18:10:20.482Z,1010.1
2022-07-27T18:11:23.433Z,1010.1
2022-07-27T18:12:26.010Z,1010.1
2022-07-27T18:13:40.077Z,1010.1
2022-07-27T18:14:42.652Z,1010.1
2022-07-27T18:15:46.580Z,1010.2
2022-07-27T18:16:49.270Z,1010.1
2022-07-27T18:17:52.755Z,1010.2
2022-07-27T18:18:55.462Z,1010.2
2022-07-27T18:19:58.930Z,1010.2
2022-07-27T18:21:01.910Z,1010.2
2022-07-27T18:22:04.824Z,1010.2
2022-07-27T18:23:08.273Z,1010.2
2022-07-27T18:24:11.238Z,1010.2
2022-07-27T18:25:13.811Z,1010.2
2022-07-27T18:26:16.724Z,1010.2
2022-07-27T18:27:19.906Z,1010.2
2022-07-27T18:28:22.482Z,1010.2
2022-07-27T18:29:25.294Z,1010.2
2022-07-27T18:30:28.360Z,1010.2
2022-07-27T18:31:31.062Z,1010.2
2022-07-27T18:32:34.473Z,1010.2
2022-07-27T18:33:37.676Z,1010.3
2022-07-27T18:34:40.853Z,1010.2
2022-07-27T18:35:43.521Z,1010.3
2022-07-27T18:36:46.082Z,1010.3
2022-07-27T18:37:49.558Z,1010.3
2022-07-27T18:38:51.766Z,1010.3
2022-07-27T18:39:54.073Z,1010.3
2022-07-27T18:40:57.316Z,1010.3
2022-07-27T18:42:00.165Z,1010.3
2022-07-27T18:43:04.163Z,1010.3
2022-07-27T18:44:07.542Z,1010.3
2022-07-27T18:45:10.956Z,1010.3
2022-07-27T18:46:13.743Z,1010.3
2022-07-27T18:47:17.023Z,1010.3
2022-07-27T18:48:19.733Z,1010.4
2022-07-27T18:49:23.018Z,1010.4
2022-07-27T18:50:26.770Z,1010.4
2022-07-27T18:51:29.613Z,1010.4
2022-07-27T18:52:32.521Z,1010.4
2022-07-27T18:53:35.093Z,1010.5
2022-07-27T18:54:38.258Z,1010.4
2022-07-27T18:55:41.515Z,1010.5
2022-07-27T18:56:44.360Z,1010.5
2022-07-27T18:57:47.557Z,1010.5
2022-07-27T18:58:49.918Z,1010.5
2022-07-27T18:59:52.829Z,1010.5
2022-07-27T19:00:55.562Z,1010.5
2022-07-27T19:01:58.257Z,1010.5
2022-07-27T19:03:01.438Z,1010.6
2022-07-27T19:04:08.588Z,1010.6
2022-07-27T19:05:18.125Z,1010.6
2022-07-27T19:06:47.313Z,1010.7
2022-07-27T19:07:52.877Z,1010.7
2022-07-27T19:08:58.525Z,1010.7
2022-07-27T19:10:01.440Z,1010.8
2022-07-27T19:11:04.583Z,1010.7
2022-07-27T19:12:10.247Z,1010.8
2022-07-27T19:13:13.383Z,1010.8
2022-07-27T19:14:16.502Z,1010.8
2022-07-27T19:15:19.714Z,1010.8
2022-07-27T19:16:22.780Z,1010.8
2022-07-27T19:17:26.342Z,1010.8
2022-07-27T19:18:29.686Z,1010.8
2022-07-27T19:19:33.157Z,1010.8
2022-07-27T19:20:35.834Z,1010.8
2022-07-27T19:21:38.889Z,1010.9
2022-07-27T19:22:41.515Z,1010.9
2022-07-27T19:23:44.694Z,1010.9
2022-07-27T19:24:54.903Z,1010.9
2022-07-27T19:25:58.461Z,1011
2022-07-27T19:27:01.660Z,1010.9
2022-07-27T19:28:04.996Z,1011
2022-07-27T19:29:07.933Z,1011
2022-07-27T19:30:10.811Z,1011
2022-07-27T19:31:23.909Z,1011
2022-07-27T19:32:27.035Z,1011
2022-07-27T19:33:29.940Z,1011
2022-07-27T19:34:33.161Z,1011
2022-07-27T19:35:35.529Z,1011
2022-07-27T19:36:38.379Z,1011
2022-07-27T19:37:40.952Z,1011
2022-07-27T19:38:43.868Z,1011
2022-07-27T19:40:20.621Z,1011
2022-07-27T19:41:48.989Z,1011.1
2022-07-27T19:42:51.969Z,1011.1
2022-07-27T19:43:54.533Z,1011.1
2022-07-27T19:44:57.163Z,1011.1
2022-07-27T19:46:00.435Z,1011.1
2022-07-27T19:47:03.846Z,1011.1
2022-07-27T19:48:06.547Z,1011.2
2022-07-27T19:49:12.196Z,1011.2
2022-07-27T19:50:16.653Z,1011.1
2022-07-27T19:51:19.216Z,1011.1
2022-07-27T19:52:22.058Z,1011.2
2022-07-27T19:53:24.699Z,1011.2
2022-07-27T19:54:27.888Z,1011.2
2022-07-27T19:55:30.575Z,1011.2
2022-07-27T19:56:37.708Z,1011.2
2022-07-27T19:57:40.897Z,1011.2
2022-07-27T19:58:44.032Z,1011.2
2022-07-27T19:59:57.080Z,1011.2
2022-07-27T20:01:00.438Z,1011.2
2022-07-27T20:02:04.003Z,1011.2
2022-07-27T20:03:07.493Z,1011.3
2022-07-27T20:04:10.337Z,1011.3
2022-07-27T20:05:12.915Z,1011.3
2022-07-27T20:06:15.822Z,1011.3
2022-07-27T20:07:19.003Z,1011.3
2022-07-27T20:08:23.609Z,1011.3
2022-07-27T20:09:26.523Z,1011.3
2022-07-27T20:10:28.937Z,1011.3
2022-07-27T20:11:31.260Z,1011.3
2022-07-27T20:12:34.443Z,1011.4
2022-07-27T20:13:37.020Z,1011.3
2022-07-27T20:14:39.921Z,1011.3
2022-07-27T20:15:42.549Z,1011.4
2022-07-27T20:16:45.854Z,1011.4
2022-07-27T20:17:49.238Z,1011.3
2022-07-27T20:18:51.319Z,1011.3
2022-07-27T20:19:54.443Z,1011.3
2022-07-27T20:20:57.280Z,1011.3
2022-07-27T20:22:00.125Z,1011.3
2022-07-27T20:23:03.313Z,1011.4
2022-07-27T20:24:06.218Z,1011.4
2022-07-27T20:25:09.422Z,1011.4
2022-07-27T20:26:12.330Z,1011.4
2022-07-27T20:27:15.560Z,1011.4
2022-07-27T20:28:18.152Z,1011.4
2022-07-27T20:29:21.120Z,1011.4
2022-07-27T20:30:24.232Z,1011.4
2022-07-27T20:31:27.795Z,1011.5
2022-07-27T20:32:31.003Z,1011.5
2022-07-27T20:33:34.797Z,1011.4
2022-07-27T20:34:37.427Z,1011.5
2022-07-27T20:35:40.062Z,1011.4
2022-07-27T20:36:42.406Z,1011.4
2022-07-27T20:37:45.011Z,1011.4
2022-07-27T20:38:47.622Z,1011.4
2022-07-27T20:39:50.588Z,1011.4
2022-07-27T20:40:53.780Z,1011.4
2022-07-27T20:41:56.893Z,1011.4
2022-07-27T20:43:00.308Z,1011.4
2022-07-27T20:44:03.045Z,1011.4
2022-07-27T20:45:06.843Z,1011.4
2022-07-27T20:46:10.766Z,1011.3
2022-07-27T20:47:18.665Z,1011.3
2022-07-27T20:48:21.235Z,1011.3
2022-07-27T20:49:23.262Z,1011.3
2022-07-27T20:50:27.052Z,1011.4
2022-07-27T20:51:30.321Z,1011.4
2022-07-27T20:52:33.535Z,1011.4
2022-07-27T20:53:36.450Z,1011.4
2022-07-27T20:54:39.073Z,1011.4
2022-07-27T20:55:41.985Z,1011.4
2022-07-27T20:56:44.827Z,1011.4
2022-07-27T20:57:48.119Z,1011.4
2022-07-27T20:58:50.851Z,1011.5
2022-07-27T20:59:54.610Z,1011.5
2022-07-27T21:00:57.032Z,1011.5
2022-07-27T21:02:00.501Z,1011.5
2022-07-27T21:03:03.716Z,1011.5
2022-07-27T21:04:06.706Z,1011.5
2022-07-27T21:05:09.729Z,1011.5
2022-07-27T21:06:12.471Z,1011.6
2022-07-27T21:07:15.257Z,1011.5
2022-07-27T21:08:17.830Z,1011.6
2022-07-27T21:09:21.092Z,1011.6
2022-07-27T21:10:24.596Z,1011.6
2022-07-27T21:11:27.164Z,1011.6
2022-07-27T21:12:30.628Z,1011.6
2022-07-27T21:13:33.534Z,1011.6
2022-07-27T21:14:36.992Z,1011.6
2022-07-27T21:15:40.161Z,1011.6
2022-07-27T21:16:42.796Z,1011.6
2022-07-27T21:17:45.713Z,1011.6
2022-07-27T21:18:47.992Z,1011.7
2022-07-27T21:19:50.888Z,1011.7
2022-07-27T21:20:55.553Z,1011.6
2022-07-27T21:21:59.002Z,1011.7
2022-07-27T21:23:01.637Z,1011.7
2022-07-27T21:24:04.761Z,1011.7
2022-07-27T21:25:15.982Z,1011.7
2022-07-27T21:26:21.844Z,1011.7
2022-07-27T21:27:27.421Z,1011.8
2022-07-27T21:28:33.658Z,1011.8
2022-07-27T21:29:37.403Z,1011.8
2022-07-27T21:30:40.552Z,1011.8
2022-07-27T21:31:44.200Z,1011.8
2022-07-27T21:32:47.128Z,1011.8
2022-07-27T21:33:50.441Z,1011.8
2022-07-27T21:34:53.801Z,1011.8
2022-07-27T21:35:56.702Z,1011.9
2022-07-27T21:37:00.174Z,1011.9
2022-07-27T21:38:02.948Z,1011.9
2022-07-27T21:39:05.578Z,1011.9
2022-07-27T21:40:08.484Z,1011.9
2022-07-27T21:41:11.056Z,1011.9
2022-07-27T21:42:14.235Z,1011.9
2022-07-27T21:43:17.145Z,1011.9
2022-07-27T21:44:20.317Z,1011.9
2022-07-27T21:45:23.719Z,1011.8
2022-07-27T21:46:26.653Z,1011.9
2022-07-27T21:47:30.187Z,1011.9
2022-07-27T21:48:33.212Z,1011.9
2022-07-27T21:49:36.678Z,1011.9
2022-07-27T21:50:39.871Z,1012
2022-07-27T21:51:42.781Z,1012
2022-07-27T21:52:45.718Z,1012
2022-07-27T21:53:48.900Z,1012
2022-07-27T21:54:52.094Z,1012
2022-07-27T21:55:54.658Z,1012
2022-07-27T21:56:57.839Z,1012
2022-07-27T21:58:01.014Z,1012
2022-07-27T21:59:04.135Z,1012
2022-07-27T22:00:07.028Z,1012
2022-07-27T22:01:09.759Z,1012
2022-07-27T22:02:12.836Z,1012
2022-07-27T22:03:15.396Z,1012
2022-07-27T22:04:18.659Z,1012
2022-07-27T22:05:22.257Z,1012
2022-07-27T22:06:25.169Z,1012
2022-07-27T22:07:28.003Z,1012
2022-07-27T22:08:30.342Z,1012
2022-07-27T22:09:33.530Z,1012
2022-07-27T22:10:46.001Z,1012
2022-07-27T22:11:48.885Z,1012
2022-07-27T22:12:51.983Z,1012
2022-07-27T22:13:55.494Z,1012
2022-07-27T22:14:58.627Z,1012
2022-07-27T22:16:02.234Z,1012
2022-07-27T22:17:05.608Z,1012
2022-07-27T22:18:08.343Z,1012
2022-07-27T22:19:10.914Z,1011.9
2022-07-27T22:20:13.709Z,1011.9
2022-07-27T22:21:16.623Z,1012
2022-07-27T22:22:23.098Z,1012
2022-07-27T22:23:25.743Z,1012
2022-07-27T22:24:28.362Z,1012.1
2022-07-27T22:25:31.001Z,1012
2022-07-27T22:26:33.905Z,1012
2022-07-27T22:27:36.690Z,1012
2022-07-27T22:28:39.306Z,1012
2022-07-27T22:29:42.369Z,1012
2022-07-27T22:31:23.338Z,1012
2022-07-27T22:32:26.900Z,1012.1
2022-07-27T22:33:29.454Z,1012.1
2022-07-27T22:34:31.461Z,1012.1
2022-07-27T22:35:34.651Z,1012.2
2022-07-27T22:36:37.865Z,1012.1
2022-07-27T22:37:41.276Z,1012.1
2022-07-27T22:38:43.918Z,1012.1
2022-07-27T22:39:47.100Z,1012.2
2022-07-27T22:40:50.307Z,1012.2
2022-07-27T22:41:53.209Z,1012.1
2022-07-27T22:42:56.615Z,1012.1
2022-07-27T22:44:00.813Z,1012.1
2022-07-27T22:45:03.086Z,1012.2
2022-07-27T22:46:05.585Z,1012.2
2022-07-27T22:47:08.607Z,1012.2
2022-07-27T22:48:11.462Z,1012.2
2022-07-27T22:49:13.965Z,1012.2
2022-07-27T22:50:18.631Z,1012.2
2022-07-27T22:51:21.048Z,1012.1
2022-07-27T22:52:23.341Z,1012.2
2022-07-27T22:53:25.698Z,1012.2
2022-07-27T22:54:27.710Z,1012.2
2022-07-27T22:55:30.617Z,1012.2
2022-07-27T22:56:33.453Z,1012.1
2022-07-27T22:57:36.508Z,1012.2
2022-07-27T22:58:38.909Z,1012.2
2022-07-27T22:59:42.087Z,1012.2
2022-07-27T23:00:44.643Z,1012.2
2022-07-27T23:01:49.087Z,1012.2
2022-07-27T23:02:52.749Z,1012.2
2022-07-27T23:03:56.165Z,1012.2
2022-07-27T23:04:59.532Z,1012.2
2022-07-27T23:06:03.136Z,1012.2
2022-07-27T23:07:06.325Z,1012.2
2022-07-27T23:08:09.459Z,1012.2
2022-07-27T23:09:12.349Z,1012.2
2022-07-27T23:10:15.244Z,1012.2
2022-07-27T23:11:18.092Z,1012.2
2022-07-27T23:12:21.282Z,1012.2
2022-07-27T23:13:26.533Z,1012.3
2022-07-27T23:14:36.995Z,1012.2
2022-07-27T23:15:39.633Z,1012.2
2022-07-27T23:16:42.611Z,1012.2
2022-07-27T23:17:46.468Z,1012.2
2022-07-27T23:18:49.101Z,1012.2
2022-07-27T23:19:52.288Z,1012.2
2022-07-27T23:20:55.066Z,1012.2
2022-07-27T23:22:01.895Z,1012.2
2022-07-27T23:23:16.514Z,1012.2
2022-07-27T23:24:29.643Z,1012.2
2022-07-27T23:25:37.092Z,1012.2
2022-07-27T23:26:40.392Z,1012.2
2022-07-27T23:27:43.883Z,1012.2
2022-07-27T23:28:47.095Z,1012.2
2022-07-27T23:29:49.942Z,1012.2
2022-07-27T23:30:52.923Z,1012.2
2022-07-27T23:31:55.920Z,1012.2
2022-07-27T23:32:59.780Z,1012.2
2022-07-27T23:34:02.768Z,1012.2
2022-07-27T23:35:05.188Z,1012.2
2022-07-27T23:36:08.659Z,1012.2
2022-07-27T23:37:11.558Z,1012.1
2022-07-27T23:38:14.806Z,1012.2
2022-07-27T23:39:17.423Z,1012.2
2022-07-27T23:40:19.993Z,1012.2
2022-07-27T23:41:22.962Z,1012.2
2022-07-27T23:42:27.727Z,1012.2
2022-07-27T23:43:30.575Z,1012.2
2022-07-27T23:44:32.920Z,1012.2
2022-07-27T23:45:36.162Z,1012.2
2022-07-27T23:46:39.714Z,1012.2
2022-07-27T23:47:44.176Z,1012.3
2022-07-27T23:48:49.341Z,1012.2
2022-07-27T23:49:52.890Z,1012.2
2022-07-27T23:50:55.790Z,1012.2
2022-07-27T23:51:58.627Z,1012.2
2022-07-27T23:53:01.305Z,1012.2
2022-07-27T23:54:04.722Z,1012.2
2022-07-27T23:55:07.382Z,1012.2
2022-07-27T23:56:10.557Z,1012.2
2022-07-27T23:57:13.466Z,1012.2
2022-07-27T23:58:15.816Z,1012.2
2022-07-27T23:59:18.960Z,1012.2
